Time;durP1;ratioP1;P1;durP2;ratioP2;P2;SDS_P1;SDS_P2;PMS_P1;PMS_P2;Temp;Humidity;BMP_temperature;BMP_pressure;BME280_temperature;BME280_humidity;BME280_pressure;Samples;Min_cycle;Max_cycle;Signal;HPM_P1;HPM_P2
2023/09/15 00:04:20;;;;;;;1.43;0.60;;;;;;;;;;20621938;28;20368;-68
2023/09/15 00:14:23;;;;;;;1.83;0.70;;;;;;;;;;20611634;28;20550;-68
2023/09/15 00:24:26;;;;;;;1.20;0.50;;;18.60;99.90;;;;;;20629860;28;20221;-68
2023/09/15 00:34:28;;;;;;;1.70;0.67;;;;;;;;;;20637130;28;20278;-68
2023/09/15 00:44:29;;;;;;;1.53;0.60;;;;;;;;;;20629678;28;20689;-68
2023/09/15 00:54:32;;;;;;;1.43;0.60;;;18.50;99.90;;;;;;20649282;28;20270;-67
2023/09/15 01:04:34;;;;;;;1.40;0.60;;;;;;;;;;20568662;28;20213;-67
2023/09/15 01:14:36;;;;;;;2.37;0.70;;;;;;;;;;20641989;28;20653;-68
2023/09/15 01:24:42;;;;;;;1.70;0.77;;;;;;;;;;20621889;28;20220;-68
2023/09/15 01:34:52;;;;;;;1.77;0.67;;;17.90;99.90;;;;;;20653450;28;20855;-68
2023/09/15 01:44:55;;;;;;;1.87;0.80;;;;;;;;;;20631549;28;20280;-68
2023/09/15 01:54:58;;;;;;;1.43;0.70;;;;;;;;;;20631428;28;20224;-68
2023/09/15 02:05:00;;;;;;;1.60;0.73;;;;;;;;;;20627561;28;20213;-67
2023/09/15 02:15:01;;;;;;;1.97;0.57;;;;;;;;;;20643891;28;20224;-68
2023/09/15 02:25:04;;;;;;;1.30;0.80;;;;;;;;;;20652042;28;20292;-67
2023/09/15 02:35:09;;;;;;;1.73;0.50;;;;;;;;;;20595729;28;20669;-67
2023/09/15 02:45:11;;;;;;;1.93;0.90;;;;;;;;;;20598956;28;20213;-68
2023/09/15 02:55:13;;;;;;;0.90;0.50;;;;;;;;;;20610825;28;20638;-67
2023/09/15 03:05:16;;;;;;;1.40;0.50;;;;;;;;;;20610238;28;20604;-68
2023/09/15 03:15:18;;;;;;;1.70;0.57;;;12.70;99.90;;;;;;20624671;28;20282;-67
2023/09/15 03:25:20;;;;;;;1.67;0.87;;;;;;;;;;20631821;28;20231;-66
2023/09/15 03:35:22;;;;;;;2.23;0.80;;;;;;;;;;20633685;28;20649;-67
2023/09/15 03:45:24;;;;;;;1.40;0.60;;;;;;;;;;20626256;28;20306;-66
2023/09/15 03:55:26;;;;;;;4.00;0.80;;;;;;;;;;20600227;28;20294;-66
2023/09/15 04:05:28;;;;;;;1.47;0.60;;;;;;;;;;20606393;28;20707;-66
2023/09/15 04:15:30;;;;;;;1.77;0.80;;;;;;;;;;20606216;28;20548;-66
2023/09/15 04:25:32;;;;;;;3.13;0.90;;;;;;;;;;20595534;28;20216;-66
2023/09/15 04:35:34;;;;;;;5.00;0.70;;;;;;;;;;20619895;28;20239;-68
2023/09/15 04:45:36;;;;;;;1.83;0.80;;;16.90;99.90;;;;;;20639479;28;20704;-67
2023/09/15 04:55:40;;;;;;;2.70;0.90;;;;;;;;;;20636164;28;20281;-66
2023/09/15 05:05:45;;;;;;;2.10;1.00;;;;;;;;;;20627214;28;20216;-67
2023/09/15 05:15:49;;;;;;;1.47;0.67;;;;;;;;;;20627962;28;20633;-67
2023/09/15 05:25:53;;;;;;;4.43;0.80;;;;;;;;;;20644051;28;20235;-67
2023/09/15 05:35:58;;;;;;;1.63;0.87;;;16.50;99.90;;;;;;20646293;28;20236;-67
2023/09/15 05:46:00;;;;;;;2.20;0.73;;;;;;;;;;20615567;28;20220;-67
2023/09/15 05:56:03;;;;;;;2.40;1.10;;;;;;;;;;20732456;23;20845;-74
2023/09/15 06:06:05;;;;;;;1.57;0.80;;;;;;;;;;20743097;28;20207;-74
2023/09/15 06:16:07;;;;;;;2.77;0.80;;;;;;;;;;20733285;28;20218;-76
2023/09/15 06:26:08;;;;;;;2.50;0.90;;;;;;;;;;20756975;28;20256;-74
2023/09/15 06:36:10;;;;;;;2.40;0.93;;;;;;;;;;20751180;28;20218;-79
2023/09/15 06:46:12;;;;;;;1.93;0.87;;;;;;;;;;20753741;28;20211;-78
2023/09/15 06:56:13;;;;;;;1.97;0.90;;;;;;;;;;20755992;28;20272;-78
2023/09/15 07:06:15;;;;;;;2.93;1.07;;;;;;;;;;20717950;28;20237;-75
2023/09/15 07:16:17;;;;;;;2.90;0.90;;;;;;;;;;20748532;28;20898;-75
2023/09/15 07:26:18;;;;;;;1.73;0.83;;;;;;;;;;20742636;28;21301;-75
2023/09/15 07:36:20;;;;;;;3.20;0.80;;;;;;;;;;20732331;28;20280;-76
2023/09/15 07:46:22;;;;;;;2.27;0.90;;;;;;;;;;20744029;28;20238;-76
2023/09/15 07:56:23;;;;;;;2.13;1.00;;;;;;;;;;20759539;28;20224;-75
2023/09/15 08:06:26;;;;;;;1.70;0.80;;;18.70;99.90;;;;;;20735623;28;20592;-75
2023/09/15 08:16:29;;;;;;;3.13;1.23;;;;;;;;;;20727757;28;20223;-74
2023/09/15 08:26:31;;;;;;;3.50;1.10;;;;;;;;;;20693039;28;20272;-76
2023/09/15 08:36:33;;;;;;;2.97;1.17;;;;;;;;;;20724240;28;20231;-76
2023/09/15 08:46:35;;;;;;;1.77;1.13;;;19.80;99.90;;;;;;20732557;28;20214;-76
2023/09/15 08:56:37;;;;;;;3.40;1.00;;;19.90;99.90;;;;;;20740309;28;20752;-76
2023/09/15 09:06:39;;;;;;;2.03;0.93;;;;;;;;;;20754338;28;20271;-76
2023/09/15 09:16:46;;;;;;;2.10;1.10;;;20.20;99.90;;;;;;20741942;28;20286;-76
2023/09/15 09:26:57;;;;;;;2.47;1.00;;;;;;;;;;20720956;28;20214;-76
2023/09/15 09:36:59;;;;;;;2.03;0.90;;;20.60;99.90;;;;;;20735557;28;20216;-78
2023/09/15 09:47:00;;;;;;;3.10;1.23;;;;;;;;;;20750515;28;20214;-75
2023/09/15 09:57:03;;;;;;;1.60;1.00;;;;;;;;;;20744532;28;20245;-75
2023/09/15 10:07:05;;;;;;;3.83;1.10;;;;;;;;;;20721362;28;20596;-75
2023/09/15 10:17:07;;;;;;;2.43;0.97;;;;;;;;;;20734825;28;20265;-76
2023/09/15 10:27:08;;;;;;;2.10;1.20;;;;;;;;;;20736553;28;20231;-75
2023/09/15 10:37:10;;;;;;;1.43;1.00;;;22.10;99.90;;;;;;20716388;28;20226;-78
2023/09/15 10:47:18;;;;;;;3.67;1.60;;;22.10;99.90;;;;;;20742549;28;20256;-77
2023/09/15 10:57:20;;;;;;;2.03;1.50;;;;;;;;;;20755494;28;20425;-77
2023/09/15 11:07:22;;;;;;;3.63;1.77;;;;;;;;;;20740294;28;20260;-77
2023/09/15 11:17:24;;;;;;;2.70;1.55;;;;;;;;;;20732086;28;20266;-77
2023/09/15 11:27:25;;;;;;;2.80;1.20;;;;;;;;;;20774463;28;20251;-78
2023/09/15 11:37:28;;;;;;;2.22;1.20;;;;;;;;;;20742507;28;20223;-78
2023/09/15 11:47:32;;;;;;;2.75;1.13;;;;;;;;;;20735593;28;20242;-78
2023/09/15 11:57:34;;;;;;;2.72;0.85;;;;;;;;;;20703676;28;20644;-78
2023/09/15 12:07:36;;;;;;;2.33;0.93;;;;;;;;;;20722283;28;20224;-79
2023/09/15 12:17:42;;;;;;;1.60;0.85;;;;;;;;;;20756901;28;20231;-79
2023/09/15 12:27:43;;;;;;;4.25;0.90;;;;;;;;;;20745893;28;20211;-80
2023/09/15 12:37:46;;;;;;;2.05;0.80;;;;;;;;;;20750645;28;20787;-78
2023/09/15 12:47:48;;;;;;;2.40;1.00;;;;;;;;;;20755240;28;20234;-79
2023/09/15 13:08:14;;;;;;;1.58;0.80;;;;;;;;;;20932317;28;20280;-66
2023/09/15 13:18:19;;;;;;;0.95;0.68;;;;;;;;;;20872828;28;20668;-67
2023/09/15 13:28:20;;;;;;;0.90;0.65;;;;;;;;;;20858982;28;20233;-67
2023/09/15 13:38:23;;;;;;;1.10;0.70;;;;;;;;;;20835425;28;20282;-67
2023/09/15 13:48:25;;;;;;;1.23;0.70;;;;;;;;;;20856996;28;20279;-67
2023/09/15 13:58:27;;;;;;;1.85;1.10;;;;;;;;;;20840513;28;20223;-67
2023/09/15 14:08:29;;;;;;;1.35;0.80;;;;;;;;;;20848346;28;20278;-67
2023/09/15 14:18:31;;;;;;;1.10;0.68;;;;;;;;;;20845985;28;20226;-67
2023/09/15 14:28:32;;;;;;;0.98;0.75;;;;;;;;;;20851902;28;20227;-67
2023/09/15 14:38:34;;;;;;;1.20;0.70;;;;;;;;;;20843507;28;20566;-67
2023/09/15 14:48:36;;;;;;;2.35;0.90;;;;;;;;;;20892342;28;20228;-66
2023/09/15 14:58:39;;;;;;;1.23;0.75;;;;;;;;;;20888305;28;20288;-67
2023/09/15 15:08:41;;;;;;;1.20;0.65;;;;;;;;;;20865737;28;20271;-67
2023/09/15 15:18:44;;;;;;;0.80;0.60;;;25.60;99.90;;;;;;20882126;28;20227;-67
2023/09/15 15:28:47;;;;;;;1.67;0.98;;;;;;;;;;20848138;28;20231;-67
2023/09/15 15:38:48;;;;;;;1.50;0.80;;;;;;;;;;20863864;28;20299;-68
2023/09/15 15:48:51;;;;;;;3.03;1.30;;;;;;;;;;20863047;28;20594;-67
2023/09/15 15:58:53;;;;;;;1.00;0.68;;;;;;;;;;20890789;28;20247;-67
2023/09/15 16:08:55;;;;;;;1.00;0.80;;;;;;;;;;20861873;28;20356;-67
2023/09/15 16:18:57;;;;;;;1.50;0.98;;;;;;;;;;20832918;28;20233;-67
2023/09/15 16:28:58;;;;;;;1.50;0.93;;;;;;;;;;20845237;28;20229;-66
2023/09/15 16:39:00;;;;;;;1.35;1.00;;;;;;;;;;20828458;28;20602;-67
2023/09/15 16:49:02;;;;;;;1.52;0.95;;;;;;;;;;20860811;28;20223;-67
2023/09/15 16:59:04;;;;;;;1.45;0.93;;;;;;;;;;20891953;28;20238;-67
2023/09/15 17:09:07;;;;;;;1.50;1.00;;;;;;;;;;20849777;28;20264;-67
2023/09/15 17:19:09;;;;;;;1.02;0.80;;;;;;;;;;20857214;28;20231;-68
2023/09/15 17:29:12;;;;;;;4.30;0.90;;;;;;;;;;20857809;28;20223;-66
2023/09/15 17:39:14;;;;;;;2.53;1.00;;;;;;;;;;20874296;28;20275;-66
2023/09/15 17:49:17;;;;;;;1.15;0.80;;;;;;;;;;20857173;28;20928;-67
2023/09/15 17:59:23;;;;;;;2.10;0.70;;;;;;;;;;20871617;28;20244;-67
2023/09/15 18:09:25;;;;;;;5.07;0.98;;;;;;;;;;20887271;28;20231;-67
2023/09/15 18:19:27;;;;;;;3.38;1.08;;;;;;;;;;20848269;28;20226;-68
2023/09/15 18:29:29;;;;;;;1.65;0.80;;;;;;;;;;20853407;28;20284;-68
2023/09/15 18:39:32;;;;;;;1.50;0.90;;;;;;;;;;20848499;28;20226;-68
2023/09/15 18:50:02;;;;;;;1.02;0.73;;;23.10;99.90;;;;;;20826387;28;20211;-67
2023/09/15 19:00:14;;;;;;;1.27;0.80;;;;;;;;;;20854976;28;20230;-67
2023/09/15 19:10:52;;;;;;;2.80;0.88;;;;;;;;;;20875961;28;20210;-67
2023/09/15 19:21:17;;;;;;;1.65;0.85;;;;;;;;;;20909707;22;20206;-66
2023/09/15 19:31:19;;;;;;;1.40;0.85;;;;;;;;;;20840158;28;20236;-66
2023/09/15 19:41:22;;;;;;;1.80;0.85;;;;;;;;;;20779469;28;20242;-66
2023/09/15 19:51:30;;;;;;;1.42;0.82;;;;;;;;;;20756999;28;20208;-66
2023/09/15 20:01:35;;;;;;;3.25;0.90;;;;;;;;;;20785932;28;20327;-67
2023/09/15 20:11:37;;;;;;;2.38;1.08;;;;;;;;;;20778900;28;20213;-67
